Forecasts are only available for sites displaying the forecast symbol.

Some water levels are actually in metres AHD (Australian Height Datum), click individual sites for more details.

Scroll for more >

River gauges, storages, and weirs in the Murray–Darling Basin

Type Location Riversort descending Water level Flow Volume Release Water temp Salinity Rainfall
River Gauge Rochester Campaspe 1.79 m 31/07/2021 22:45 132 ML/Day 31/07/2021 22:45 Not measured Not measured 9.9°C 31/07/2021 22:45 621.2 μS/cm 31/07/2021 22:45 0.8 mm 30/07/2021 9:00 Full data
River Gauge Wilcania Darling 4.53 m 31/07/2021 22:45 9575 ML/Day 31/07/2021 22:45 Not measured Not measured 12.1°C 31/07/2021 22:45 318.3 μS/cm 31/07/2021 22:45 Not measured Full data
Storage Menindee Lakes Darling Not measured Not measured 1157 GL 30/07/2021 7:45 Not measured Not measured Not measured Not measured Full data
River Gauge Weir 32 Upstream Darling 1.52 m 31/07/2021 22:45 495 ML/Day 31/07/2021 22:45 Not measured Not measured 11.8°C 31/07/2021 22:45 318.3 μS/cm 31/07/2021 22:45 Not measured Full data
River Gauge Burtundy Darling 0.86 m 31/07/2021 22:45 440 ML/Day 31/07/2021 22:45 Not measured Not measured 11.5°C 31/07/2021 22:45 299.1 μS/cm 31/07/2021 22:45 Not measured Full data
Weirs Steven's Weir Upstream Edward 4.54 m 31/07/2021 23:30 Not measured Not measured Not measured Not measured Not measured Not measured Full data
Weirs Steven's Weir Downstream Edward 2.7 m 31/07/2021 22:45 3212 ML/Day 31/07/2021 22:45 Not measured Not measured 10.5°C 31/07/2021 22:45 46.5 μS/cm 31/07/2021 22:45 Not measured Full data
River Gauge McCoy Bridge Goulburn 4.84 m 31/07/2021 22:45 8408 ML/Day 31/07/2021 22:45 Not measured Not measured 9.6°C 31/07/2021 22:45 122.2 μS/cm 31/07/2021 22:45 Not measured Full data
River Gauge Bandiana Kiewa 2.95 m 31/07/2021 22:45 6104 ML/Day 31/07/2021 22:45 Not measured Not measured 9.9°C 31/07/2021 22:45 51.1 μS/cm 31/07/2021 22:45 Not measured Full data
River Gauge Kerang Loddon 0.45 m 31/07/2021 22:45 366 ML/Day 31/07/2021 22:45 Not measured Not measured 11.0°C 31/07/2021 22:45 150.2 μS/cm 31/07/2021 22:45 Not measured Full data
River Gauge Hinnomunjie Mitta 1.34 m 31/07/2021 22:45 2782 ML/Day 31/07/2021 22:45 Not measured Not measured 6.7°C 31/07/2021 22:45 28.7 μS/cm 31/07/2021 22:45 0.2 mm 30/07/2021 9:00 Full data
Storage Dartmouth Dam Mitta 466.29 m 31/07/2021 8:45 Not measured 2693 GL 31/07/2021 8:45 Not measured Not measured Not measured Not measured Full data
Storage Dartmouth Dam Mitta 466.29 m 31/07/2021 8:45 Not measured 2693 GL 31/07/2021 8:45 Not measured Not measured Not measured Not measured Full data
River Gauge Colemans Mitta 0.9 m 31/07/2021 22:45 202 ML/Day 31/07/2021 22:45 Not measured Not measured 9.3°C 31/07/2021 22:45 50.7 μS/cm 31/07/2021 22:45 Not measured Full data
River Gauge Colemans Mitta 0.9 m 31/07/2021 22:45 202 ML/Day 31/07/2021 22:45 Not measured Not measured 9.3°C 31/07/2021 22:45 50.7 μS/cm 31/07/2021 22:45 Not measured Full data
River Gauge Tallandoon Mitta 2.25 m 31/07/2021 22:45 3352 ML/Day 31/07/2021 22:45 Not measured Not measured 9.5°C 31/07/2021 22:45 32.5 μS/cm 31/07/2021 22:45 Not measured Full data
River Gauge Tallandoon Mitta 2.25 m 31/07/2021 22:45 3352 ML/Day 31/07/2021 22:45 Not measured Not measured 9.5°C 31/07/2021 22:45 32.5 μS/cm 31/07/2021 22:45 Not measured Full data
River Gauge Barmah Choke Murray 3.07 m 31/07/2021 22:45 9988 ML/Day 31/07/2021 22:45 Not measured Not measured Not measured Not measured Not measured Full data
River Gauge Redcliffs Murray Not measured Not measured Not measured Not measured Not measured 122.0 μS/cm 31/07/2021 7:45 Not measured Full data
River Gauge Biggara Murray 1.39 m 31/07/2021 23:15 4066 ML/Day 31/07/2021 23:15 Not measured Not measured 9.0°C 31/07/2021 23:30 31.3 μS/cm 31/07/2021 23:30 0.2 mm 30/07/2021 9:00 Full data
River Gauge Bringenbrong Bridge Murray 2.18 m 31/07/2021 23:15 9019 ML/Day 31/07/2021 23:15 Not measured Not measured Not measured Not measured Not measured Full data
River Gauge Pinegrove Murray 2.52 m 31/07/2021 23:15 2956 ML/Day 31/07/2021 23:15 Not measured Not measured 9.4°C 31/07/2021 23:15 55.7 μS/cm 31/07/2021 23:15 3.0 mm 28/07/2021 9:00 Full data
River Gauge Jingellic Murray 3.17 m 31/07/2021 22:45 19179 ML/Day 31/07/2021 22:45 Not measured Not measured 9.3°C 31/07/2021 22:45 54.1 μS/cm 31/07/2021 22:45 2.0 mm 30/07/2021 9:00 Full data
Storage Hume Dam Murray 189.2 m 31/07/2021 23:30 Not measured 2471 GL 31/07/2021 23:30 600.0 ML/d31/07/2021 8:00 Not measured Not measured 2.4 mm 30/07/2021 9:00 Full data
River Gauge Doctors Point Murray 2.27 m 31/07/2021 23:30 6083 ML/Day 31/07/2021 23:30 Not measured Not measured 10.0°C 31/07/2021 23:30 104.3 μS/cm 31/07/2021 23:30 Not measured Full data
River Gauge Albury (Union Bridge) Murray 1.32 m 31/07/2021 23:30 Not measured Not measured Not measured 9.9°C 31/07/2021 23:30 53.7 μS/cm 31/07/2021 23:30 Not measured Full data
River Gauge Corowa Murray 1.69 m 31/07/2021 23:30 6555 ML/Day 31/07/2021 23:30 Not measured Not measured 10.4°C 31/07/2021 23:30 72.4 μS/cm 31/07/2021 23:30 Not measured Full data
Weirs Yarrawonga Weir Upstream Murray 124.67 m 31/07/2021 22:45 Not measured Not measured Not measured Not measured Not measured 1.8 mm 31/07/2021 9:00 Full data
Weirs Yarrawonga Weir Downstream Murray 3.52 m 31/07/2021 23:30 28001 ML/Day 31/07/2021 23:30 Not measured Not measured 10.0°C 31/07/2021 23:30 62.9 μS/cm 31/07/2021 23:30 Not measured Full data
River Gauge Yarrawonga Main Channel Murray 122.85 m 31/07/2021 22:45 Not measured Not measured 4.1 ML/d31/07/2021 22:45 Not measured Not measured Not measured Full data
River Gauge Mulwala Canal Murray Not measured Not measured Not measured 1199.0 ML/d31/07/2021 8:45 Not measured Not measured Not measured Full data
River Gauge Tocumwal Murray 4.07 m 31/07/2021 22:45 26526 ML/Day 31/07/2021 22:45 Not measured Not measured 10.2°C 31/07/2021 22:45 51.7 μS/cm 31/07/2021 22:45 Not measured Full data
River Gauge Edward River Offtake Murray 2.7 m 31/07/2021 23:30 2050 ML/Day 31/07/2021 23:30 Not measured Not measured 10.1°C 31/07/2021 22:45 54.1 μS/cm 31/07/2021 22:45 Not measured Full data
River Gauge Gulpa Creek Offtake Murray 3.23 m 31/07/2021 22:45 934 ML/Day 31/07/2021 22:45 Not measured Not measured Not measured Not measured Not measured Full data
River Gauge Echuca Wharf Murray 88.52 m 31/07/2021 22:45 Not measured Not measured Not measured Not measured Not measured Not measured Full data
Weirs Torrumbarry Weir Downstream Murray 4.83 m 31/07/2021 22:45 17292 ML/Day 31/07/2021 22:45 Not measured Not measured 9.9°C 31/07/2021 22:45 97.9 μS/cm 31/07/2021 22:45 Not measured Full data
Weirs Torrumbarry Weir Upstream Murray 85.77 m 31/07/2021 22:45 Not measured 34 GL 31/07/2021 8:45 Not measured 9.6°C 31/07/2021 8:45 97.9 μS/cm 31/07/2021 21:45 0.00 mm 31/07/2021 9:00 Full data
River Gauge Torrumbarry Headworks Murray 84.04 m 31/07/2021 22:45 Not measured Not measured 422.4 ML/d31/07/2021 22:45 Not measured Not measured Not measured Full data
River Gauge Stoney Crossing Murray 1.35 m 31/07/2021 22:45 351 ML/Day 31/07/2021 22:45 Not measured 325.6 ML/d31/07/2021 7:45 11.6°C 31/07/2021 22:45 730.3 μS/cm 31/07/2021 22:45 Not measured Full data
River Gauge Swan Hill Murray 2.58 m 31/07/2021 22:45 15074 ML/Day 31/07/2021 22:45 Not measured Not measured 10.2°C 31/07/2021 22:45 84.5 μS/cm 31/07/2021 22:45 Not measured Full data
River Gauge Wakool Junction Murray 4.77 m 31/07/2021 22:45 17104 ML/Day 31/07/2021 22:45 Not measured Not measured 10.2°C 31/07/2021 22:45 86.3 μS/cm 31/07/2021 22:45 Not measured Full data
Weirs Euston Weir Upstream Murray 47.6 m 31/07/2021 8:45 Not measured 36 GL 30/07/2021 7:45 Not measured Not measured Not measured 145.9 mm 5/03/2020 9:00 Full data
Weirs Euston Weir Downstream Murray 45.03 m 31/07/2021 22:45 19843 ML/Day 31/07/2021 22:45 Not measured Not measured 10.4°C 31/07/2021 22:45 102.4 μS/cm 31/07/2021 22:45 Not measured Full data
River Gauge Colignan Murray 3.46 m 31/07/2021 22:45 18539 ML/Day 31/07/2021 22:45 Not measured Not measured 11.2°C 31/07/2021 22:45 103.3 μS/cm 31/07/2021 22:45 Not measured Full data
Weirs Mildura Weir downstream Murray 31.57 m 31/07/2021 22:45 Not measured Not measured Not measured 10.9°C 31/07/2021 22:45 115.5 μS/cm 31/07/2021 22:45 Not measured Full data
Weirs Lock 9 Downstream Murray 24.77 m 31/07/2021 21:45 Not measured Not measured Not measured Not measured Not measured Not measured Full data
Weirs Lock 9 Upstream Murray 27.56 m 31/07/2021 21:45 Not measured Not measured Not measured 11.0°C 31/07/2021 21:45 133.1 μS/cm 31/07/2021 21:45 Not measured Full data
Weirs Lock 8 Upstream Murray 24.61 m 31/07/2021 21:45 Not measured Not measured Not measured 11.1°C 31/07/2021 21:45 133.4 μS/cm 31/07/2021 21:45 Not measured Full data
River Gauge Frenchman Creek Murray 27.14 m 30/07/2021 7:45 Not measured Not measured 8441.2 ML/d30/07/2021 7:45 Not measured Not measured Not measured Full data
Storage Lake Victoria Murray 25.88 m 31/07/2021 21:45 Not measured 545 GL 31/07/2021 21:45 Not measured 10.6°C 31/07/2021 21:45 148.9 μS/cm 31/07/2021 21:45 Not measured Full data
River Gauge Rufus River Murray 20.57 m 30/07/2021 7:45 Not measured Not measured 711.9 ML/d30/07/2021 7:45 Not measured 171.9 μS/cm 31/07/2021 20:45 Not measured Full data
Weirs Lock 7 Downstream Murray 20.74 m 31/07/2021 21:45 Not measured Not measured Not measured Not measured Not measured Not measured Full data
Weirs Lock 7 Upstream Murray 22.71 m 31/07/2021 21:45 Not measured Not measured Not measured 11.3°C 31/07/2021 21:45 128.3 μS/cm 31/07/2021 21:45 Not measured Full data
River Gauge Flow to South Australia Murray Not measured Not measured Not measured 8046.0 ML/d30/07/2021 7:45 Not measured Not measured Not measured Full data
Weirs Lock 6 Downstream Murray 16.59 m 31/07/2021 21:45 Not measured Not measured Not measured Not measured Not measured Not measured Full data
Weirs Lock 6 Upstream Murray 19.32 m 31/07/2021 21:45 Not measured Not measured Not measured 11.4°C 31/07/2021 21:45 140.7 μS/cm 31/07/2021 21:45 Not measured Full data
Weirs Lock 5 Downstream Murray 13.57 m 31/07/2021 21:45 Not measured Not measured Not measured Not measured Not measured Not measured Full data
Weirs Lock 5 Upstream Murray 16.45 m 31/07/2021 21:45 Not measured Not measured Not measured 11.3°C 31/07/2021 21:45 158.6 μS/cm 31/07/2021 21:45 Not measured Full data
Weirs Lock 4 Downstream Murray 10.59 m 31/07/2021 21:45 Not measured Not measured Not measured Not measured Not measured Not measured Full data
Weirs Lock 4 Upstream Murray 13.4 m 31/07/2021 21:45 Not measured Not measured Not measured Not measured Not measured Not measured Full data
Weirs Lock 3 Downstream Murray 6.63 m 31/07/2021 21:45 Not measured Not measured Not measured Not measured Not measured Not measured Full data
Weirs Lock 3 Upstream Murray 9.86 m 31/07/2021 21:45 Not measured Not measured Not measured Not measured Not measured Not measured Full data
Weirs Lock 2 Downstream Murray 3.44 m 31/07/2021 21:45 Not measured Not measured Not measured Not measured Not measured Not measured Full data
Weirs Lock 2 Upstream Murray 6.43 m 31/07/2021 21:45 Not measured Not measured Not measured 11.6°C 31/07/2021 21:45 258.6 μS/cm 31/07/2021 21:45 Not measured Full data
River Gauge Morgan Downstream Murray Not measured Not measured Not measured 5571.9 ML/d31/07/2021 21:45 Not measured 281.5 μS/cm 31/07/2021 20:45 Not measured Full data
Weirs Lock 1 Downstream Murray 0.82 m 31/07/2021 21:45 Not measured Not measured 5866.3 ML/d30/07/2021 7:45 Not measured Not measured Not measured Full data
Weirs Lock 1 Upstream Murray 3.24 m 31/07/2021 21:45 Not measured Not measured Not measured 11.5°C 31/07/2021 21:15 263.2 μS/cm 31/07/2021 21:15 Not measured Full data
River Gauge Murray Bridge Murray 0.79 m 31/07/2021 21:45 Not measured Not measured Not measured 11.5°C 31/07/2021 21:45 329.5 μS/cm 31/07/2021 21:45 Not measured Full data
River Gauge Lake Alexandrina Murray 0.81 m 31/07/2021 5:45 Not measured 1650 GL 31/07/2021 5:45 Not measured Not measured 713.7 μS/cm 31/07/2021 21:45 Not measured Full data
River Gauge Lake Albert Murray 0.93 m 31/07/2021 5:45 Not measured 283 GL 24/07/2021 5:45 Not measured Not measured Not measured Not measured Full data
River Gauge Tauwitchere Barrage Murray 0.83 m 31/07/2021 21:45 Not measured Not measured Not measured Not measured Not measured Not measured Full data
River Gauge Mundoo Barrage Murray 0.85 m 30/07/2021 7:45 Not measured Not measured Not measured Not measured Not measured Not measured Full data
Weirs Wentworth Weir Murray 28.41 m 31/07/2021 22:45 Not measured Not measured 17058.3 ML/d31/07/2021 8:45 Not measured 129.0 μS/cm 30/07/2021 7:45 Not measured Full data
River Gauge Balranald Murrumbidgee 5.06 m 31/07/2021 22:45 6917 ML/Day 31/07/2021 22:45 Not measured Not measured 10.6°C 31/07/2021 22:45 134.1 μS/cm 31/07/2021 22:45 Not measured Full data
River Gauge Peechelba Ovens 130.66 m 31/07/2021 22:45 28766 ML/Day 31/07/2021 22:45 Not measured Not measured 10.8°C 31/07/2021 22:45 47.9 μS/cm 31/07/2021 22:45 Not measured Full data
River Gauge Edward Escape Wakool -1.21 m 31/07/2021 22:45 0.00 ML/Day 2/06/2021 3:00 Not measured Not measured 13.5°C 31/07/2021 22:45 0.00 μS/cm 31/07/2021 22:45 Not measured Full data
River Gauge Wakool Canal Wakool 0.77 m 31/07/2021 22:45 Not measured Not measured 998.7 ML/d31/07/2021 8:45 Not measured Not measured Not measured Full data